Time;durP1;ratioP1;P1;durP2;ratioP2;P2;SDS_P1;SDS_P2;PMS_P1;PMS_P2;Temp;Humidity;BMP_temperature;BMP_pressure;BME280_temperature;BME280_humidity;BME280_pressure;Samples;Min_cycle;Max_cycle;Signal;HPM_P1;HPM_P2
2023/04/15 00:00:33;;;;;;;14.98;7.38;;;;;;;8.99;62.95;101029.25;6103045;19;20005;-69
2023/04/15 00:02:38;;;;;;;16.17;6.95;;;;;;;8.97;63.31;101038.94;6102668;19;20015;-69
2023/04/15 00:04:46;;;;;;;11.57;6.88;;;;;;;8.94;62.88;101034.63;6098275;19;20011;-70
2023/04/15 00:06:54;;;;;;;13.02;7.82;;;;;;;8.99;63.00;101034.50;6100645;19;20515;-75
2023/04/15 00:08:59;;;;;;;17.00;7.15;;;;;;;8.95;62.53;101038.09;6095780;19;20012;-74
2023/04/15 00:11:05;;;;;;;12.32;7.28;;;;;;;8.94;62.63;101033.78;6102698;19;20007;-75
2023/04/15 00:13:10;;;;;;;18.33;7.32;;;;;;;8.98;62.66;101044.13;6099484;19;20042;-74
2023/04/15 00:15:16;;;;;;;16.05;8.48;;;;;;;8.94;62.39;101036.41;6098554;19;20010;-75
2023/04/15 00:17:23;;;;;;;12.10;6.60;;;;;;;8.94;62.80;101034.63;6100290;19;20082;-75
2023/04/15 00:19:29;;;;;;;11.93;6.88;;;;;;;8.91;63.05;101031.25;6102199;19;20006;-76
2023/04/15 00:21:36;;;;;;;15.85;7.63;;;;;;;8.94;62.73;101039.03;6102842;19;20094;-77
2023/04/15 00:23:42;;;;;;;13.25;7.43;;;;;;;8.89;62.85;101038.31;6098101;19;20317;-75
2023/04/15 00:25:54;;;;;;;16.75;7.18;;;;;;;8.88;62.55;101044.47;6102062;19;20007;-75
2023/04/15 00:27:59;;;;;;;13.98;8.35;;;;;;;8.81;63.13;101042.91;6098939;19;20407;-75
2023/04/15 00:30:06;;;;;;;12.73;7.38;;;;;;;8.80;63.26;101047.31;6099834;19;20022;-74
2023/04/15 00:32:10;;;;;;;16.98;7.90;;;;;;;8.92;62.20;101051.31;6102142;19;20024;-76
2023/04/15 00:34:15;;;;;;;14.02;7.78;;;;;;;8.88;61.97;101050.56;6100683;19;20021;-75
2023/04/15 00:36:25;;;;;;;13.30;6.90;;;;;;;8.88;62.55;101045.31;6100224;19;20094;-75
2023/04/15 00:38:33;;;;;;;16.55;7.32;;;;;;;8.90;62.17;101043.50;6100476;19;20046;-75
2023/04/15 00:40:40;;;;;;;17.08;8.20;;;;;;;8.95;61.77;101052.09;6099029;19;20010;-69
2023/04/15 00:42:45;;;;;;;14.95;8.25;;;;;;;8.94;61.63;101047.75;6099824;19;20031;-70
2023/04/15 00:44:50;;;;;;;14.77;8.30;;;;;;;8.95;61.49;101048.59;6101385;19;20003;-69
2023/04/15 00:46:56;;;;;;;23.63;8.93;;;;;;;8.83;62.05;101041.13;6099974;19;20014;-69
2023/04/15 00:49:01;;;;;;;15.30;8.43;;;;;;;8.90;61.71;101038.28;6097101;19;20002;-70
2023/04/15 00:51:07;;;;;;;14.60;8.45;;;;;;;8.83;62.10;101041.13;6098314;19;20015;-75
2023/04/15 00:53:09;;;;;;;15.02;7.90;;;;;;;8.86;62.11;101043.66;6093604;19;20371;-76
2023/04/15 00:55:18;;;;;;;17.45;8.95;;;;;;;8.84;61.88;101037.59;6100878;19;20011;-76
2023/04/15 00:57:24;;;;;;;16.88;8.70;;;;;;;8.77;62.39;101044.78;6103683;19;20022;-75
2023/04/15 00:59:30;;;;;;;16.27;8.27;;;;;;;8.70;62.42;101043.25;6102077;19;20546;-76
2023/04/15 01:01:37;;;;;;;19.58;8.90;;;;;;;8.66;62.61;101039.88;6104595;19;20017;-76
2023/04/15 01:03:42;;;;;;;18.88;9.73;;;;;;;8.62;63.24;101038.22;6103009;19;20010;-75
2023/04/15 01:05:48;;;;;;;19.73;9.68;;;;;;;8.59;62.94;101040.09;6098399;19;20722;-76
2023/04/15 01:07:53;;;;;;;16.63;8.88;;;;;;;8.63;62.73;101049.56;6102988;19;20006;-75
2023/04/15 01:09:58;;;;;;;20.98;9.10;;;;;;;8.60;62.98;101050.50;6104981;19;20205;-76
2023/04/15 01:12:07;;;;;;;16.48;8.88;;;;;;;8.52;63.25;101049.88;6106228;19;20527;-75
2023/04/15 01:14:12;;;;;;;18.17;7.82;;;;;;;8.48;63.18;101043.03;6103871;19;20010;-76
2023/04/15 01:16:18;;;;;;;19.45;8.95;;;;;;;8.45;63.63;101048.31;6103909;19;20326;-75
2023/04/15 01:18:23;;;;;;;13.50;8.52;;;;;;;8.42;63.65;101045.78;6107445;19;20009;-77
2023/04/15 01:20:29;;;;;;;16.38;8.70;;;;;;;8.41;63.41;101054.56;6105383;19;20127;-70
2023/04/15 01:22:36;;;;;;;19.13;9.60;;;;;;;8.33;63.78;101058.22;6100905;19;20269;-71
2023/04/15 01:24:42;;;;;;;16.80;9.70;;;;;;;8.28;63.70;101048.75;6102186;19;20011;-70
2023/04/15 01:26:52;;;;;;;18.35;9.15;;;;;;;8.30;63.79;101047.81;6101258;19;20098;-75
2023/04/15 01:28:57;;;;;;;17.58;8.60;;;;;;;8.22;64.09;101049.81;6101575;19;20006;-75
2023/04/15 01:31:09;;;;;;;16.70;9.13;;;;;;;8.25;63.76;101054.09;6096842;19;20013;-75
2023/04/15 01:33:14;;;;;;;18.17;8.57;;;;;;;8.28;63.75;101048.75;6098607;19;20038;-75
2023/04/15 01:35:22;;;;;;;17.92;9.07;;;;;;;8.26;64.21;101035.72;6101916;19;20397;-76
2023/04/15 01:37:28;;;;;;;14.82;8.85;;;;;;;8.24;64.13;101052.34;6101079;19;20010;-76
2023/04/15 01:39:33;;;;;;;20.73;10.07;;;;;;;8.22;63.86;101039.31;6104104;19;20023;-75
2023/04/15 01:41:41;;;;;;;19.98;8.85;;;;;;;8.22;64.22;101052.41;6101485;19;20449;-75
2023/04/15 01:43:48;;;;;;;18.38;9.90;;;;;;;8.24;64.15;101048.00;6101477;19;20522;-76
2023/04/15 01:45:54;;;;;;;18.95;9.02;;;;;;;8.20;64.34;101045.50;6102670;19;20002;-75
2023/04/15 01:47:59;;;;;;;20.27;9.32;;;;;;;8.22;64.04;101043.72;6102812;19;20321;-75
2023/04/15 01:50:05;;;;;;;17.98;9.52;;;;;;;8.23;64.53;101048.03;6101574;19;20015;-75
2023/04/15 01:52:11;;;;;;;22.40;10.43;;;;;;;8.21;64.59;101048.06;6100645;19;20006;-69
2023/04/15 01:54:16;;;;;;;14.63;8.82;;;;;;;8.23;64.76;101054.13;6098169;19;20018;-69
2023/04/15 01:56:25;;;;;;;20.38;9.88;;;;;;;8.16;64.78;101055.19;6100440;19;20086;-70
2023/04/15 01:58:30;;;;;;;16.52;9.13;;;;;;;8.11;65.20;101063.19;6101188;19;20052;-70
2023/04/15 02:00:38;;;;;;;14.35;8.50;;;;;;;8.12;65.52;101054.41;6101761;19;20010;-70
2023/04/15 02:02:43;;;;;;;17.20;9.20;;;;;;;8.08;65.49;101057.16;6102825;19;20096;-71
2023/04/15 02:04:49;;;;;;;18.45;9.65;;;;;;;8.05;65.77;101059.84;6099718;19;20006;-71
2023/04/15 02:06:54;;;;;;;19.35;9.85;;;;;;;8.01;66.18;101056.47;6099361;19;20014;-70
2023/04/15 02:08:59;;;;;;;21.50;10.23;;;;;;;8.04;66.14;101055.53;6100671;19;20232;-68
2023/04/15 02:11:05;;;;;;;19.38;9.07;;;;;;;8.00;66.21;101051.25;6101316;19;20360;-69
2023/04/15 02:13:11;;;;;;;17.02;9.43;;;;;;;7.96;66.50;101053.13;6100373;19;20015;-69
2023/04/15 02:15:16;;;;;;;19.20;9.75;;;;;;;7.97;66.95;101059.19;6099512;19;20011;-69
2023/04/15 02:17:26;;;;;;;17.80;10.05;;;;;;;7.93;67.14;101055.81;6100291;19;20031;-69
2023/04/15 02:19:31;;;;;;;17.13;9.35;;;;;;;8.00;67.26;101059.13;6102400;19;20223;-69
2023/04/15 02:21:38;;;;;;;18.02;9.80;;;;;;;7.97;67.06;101064.44;6108057;19;20451;-70
2023/04/15 02:23:43;;;;;;;18.88;9.25;;;;;;;7.94;67.31;101057.53;6104578;19;20091;-70
2023/04/15 02:25:49;;;;;;;17.17;9.52;;;;;;;8.00;67.34;101059.97;6109202;19;20018;-70
2023/04/15 02:27:59;;;;;;;18.65;9.05;;;;;;;7.94;67.68;101067.13;6106951;19;20006;-70
2023/04/15 02:30:04;;;;;;;17.38;9.90;;;;;;;7.89;67.80;101059.41;6106931;19;20019;-70
2023/04/15 02:32:10;;;;;;;19.75;10.02;;;;;;;7.87;67.76;101063.81;6104607;19;20007;-69
2023/04/15 02:34:18;;;;;;;17.13;9.30;;;;;;;7.90;67.84;101069.84;6104680;19;20630;-69
2023/04/15 02:36:23;;;;;;;17.33;9.43;;;;;;;7.91;67.60;101068.94;6107413;19;20542;-69
2023/04/15 02:38:28;;;;;;;16.80;9.85;;;;;;;7.88;67.73;101076.00;6106319;19;20005;-69
2023/04/15 02:40:36;;;;;;;16.33;9.57;;;;;;;7.82;68.50;101073.53;6105345;19;20014;-70
2023/04/15 02:42:44;;;;;;;19.30;9.15;;;;;;;7.75;68.41;101079.84;6103697;19;20003;-69
2023/04/15 02:44:53;;;;;;;18.95;10.40;;;;;;;7.79;68.46;101082.31;6104898;19;20014;-75
2023/04/15 02:46:58;;;;;;;15.68;9.20;;;;;;;7.75;68.36;101085.06;6102786;19;20431;-72
2023/04/15 02:49:02;;;;;;;18.08;8.75;;;;;;;7.76;68.83;101085.00;6102345;19;20224;-75
2023/04/15 02:51:22;;;;;;;17.30;8.95;;;;;;;7.76;69.11;101087.63;6104409;19;20026;-75
2023/04/15 02:53:30;;;;;;;18.95;9.63;;;;;;;7.72;69.03;101086.00;6104193;19;20014;-75
2023/04/15 02:55:35;;;;;;;19.02;9.90;;;;;;;7.66;69.19;101088.75;6104847;19;20003;-75
2023/04/15 02:57:40;;;;;;;15.48;9.85;;;;;;;7.60;69.68;101094.13;6104408;19;20048;-75
2023/04/15 02:59:45;;;;;;;21.10;10.25;;;;;;;7.59;70.04;101097.66;6105143;19;20833;-75
2023/04/15 03:01:51;;;;;;;19.48;9.90;;;;;;;7.55;70.48;101103.84;6101938;19;20011;-75
2023/04/15 03:03:56;;;;;;;16.15;8.50;;;;;;;7.51;70.41;101107.44;6107187;19;20014;-75
2023/04/15 03:06:00;;;;;;;16.73;9.43;;;;;;;7.48;70.66;101111.00;6104697;19;20006;-76
2023/04/15 03:08:08;;;;;;;18.20;9.65;;;;;;;7.44;71.04;101112.78;6104221;19;20984;-75
2023/04/15 03:10:14;;;;;;;18.42;9.82;;;;;;;7.39;70.96;101108.56;6104564;19;20018;-76
2023/04/15 03:12:19;;;;;;;18.75;9.88;;;;;;;7.35;71.42;101110.41;6101990;19;20011;-75
2023/04/15 03:14:24;;;;;;;20.27;9.85;;;;;;;7.30;71.43;101109.66;6105921;19;20479;-76
2023/04/15 03:16:29;;;;;;;18.35;9.75;;;;;;;7.25;71.60;101116.72;6103545;19;20078;-70
2023/04/15 03:18:34;;;;;;;22.98;10.38;;;;;;;7.21;71.66;101120.28;6103952;19;20041;-70
2023/04/15 03:20:41;;;;;;;24.73;10.43;;;;;;;7.13;71.72;101119.59;6104542;19;20530;-70
2023/04/15 03:22:46;;;;;;;20.75;11.27;;;;;;;7.01;72.12;101116.38;6103108;19;20006;-70
2023/04/15 03:24:54;;;;;;;22.30;10.50;;;;;;;6.94;72.19;101122.59;6103488;19;20515;-70
2023/04/15 03:27:00;;;;;;;19.98;10.15;;;;;;;6.95;72.15;101134.81;6101822;19;20028;-71
2023/04/15 03:29:05;;;;;;;19.02;10.27;;;;;;;6.87;72.32;101133.22;6105180;19;20010;-70
2023/04/15 03:31:11;;;;;;;18.20;10.75;;;;;;;6.81;72.78;101131.59;6103568;19;20035;-70
2023/04/15 03:33:16;;;;;;;21.38;10.60;;;;;;;6.75;72.93;101134.34;6104239;19;20018;-75
2023/04/15 03:35:23;;;;;;;16.63;10.15;;;;;;;6.72;73.08;101137.00;6103065;19;20824;-76
2023/04/15 03:37:28;;;;;;;18.25;10.38;;;;;;;6.61;73.40;101145.06;6103475;19;20030;-75
2023/04/15 03:39:32;;;;;;;22.17;11.40;;;;;;;6.51;73.30;101144.38;6104211;19;20419;-76
2023/04/15 03:41:40;;;;;;;17.02;9.93;;;;;;;6.49;73.86;101145.28;6104416;19;20003;-76
2023/04/15 03:43:46;;;;;;;16.27;9.82;;;;;;;6.39;74.13;101149.81;6104419;19;20014;-75
2023/04/15 03:45:53;;;;;;;19.42;11.25;;;;;;;6.34;74.40;101143.81;6103572;19;20030;-76
2023/04/15 03:47:58;;;;;;;20.00;10.30;;;;;;;6.26;74.52;101154.38;6102045;19;20575;-76
2023/04/15 03:50:23;;;;;;;20.48;10.88;;;;;;;6.25;74.81;101157.88;6100025;19;20445;-76
2023/04/15 03:52:28;;;;;;;18.95;10.45;;;;;;;6.21;75.39;101164.03;6100107;19;20020;-76
2023/04/15 03:54:33;;;;;;;21.77;10.77;;;;;;;6.22;75.20;101162.31;6102255;19;20011;-75
2023/04/15 03:56:41;;;;;;;19.92;11.02;;;;;;;6.20;75.47;101169.28;6105415;19;20086;-75
2023/04/15 03:58:46;;;;;;;21.45;10.93;;;;;;;6.25;75.12;101170.94;6106840;19;20023;-75
2023/04/15 04:00:54;;;;;;;21.05;11.80;;;;;;;6.24;75.21;101165.72;6103826;19;20477;-75
2023/04/15 04:03:00;;;;;;;20.77;11.25;;;;;;;6.20;75.13;101166.69;6099593;19;20007;-76
2023/04/15 04:05:06;;;;;;;20.00;10.95;;;;;;;6.18;75.38;101168.47;6107379;19;20100;-75
2023/04/15 04:07:16;;;;;;;19.55;9.98;;;;;;;6.20;75.51;101179.72;6108198;19;20121;-75
2023/04/15 04:09:22;;;;;;;20.67;10.68;;;;;;;6.14;76.11;101180.72;6105978;19;20011;-75
2023/04/15 04:11:27;;;;;;;18.92;11.30;;;;;;;6.11;75.93;101176.41;6106497;19;20028;-75
2023/04/15 04:13:35;;;;;;;20.23;11.00;;;;;;;6.05;75.97;101179.09;6108335;19;21238;-75
2023/04/15 04:15:40;;;;;;;25.60;11.98;;;;;;;6.00;76.83;101180.06;6106771;19;20014;-75
2023/04/15 04:17:46;;;;;;;20.85;11.32;;;;;;;6.01;76.31;101187.00;6104803;19;20010;-75
2023/04/15 04:19:52;;;;;;;22.38;11.32;;;;;;;5.94;76.51;101192.31;6106935;19;20462;-75
2023/04/15 04:21:57;;;;;;;17.58;10.40;;;;;;;5.90;76.54;101193.22;6104684;19;20640;-75
2023/04/15 04:24:02;;;;;;;19.75;10.52;;;;;;;5.88;76.69;101204.56;6105395;19;20023;-75
2023/04/15 04:26:07;;;;;;;21.15;11.25;;;;;;;5.86;76.62;101195.91;6103201;19;20344;-75
2023/04/15 04:28:13;;;;;;;18.95;10.95;;;;;;;5.87;77.19;101198.50;6102520;19;20079;-76
2023/04/15 04:30:22;;;;;;;22.02;10.63;;;;;;;5.93;77.13;101203.63;6103489;19;20369;-76
2023/04/15 04:32:29;;;;;;;22.90;10.80;;;;;;;5.87;77.84;101213.25;6104488;19;20033;-76
2023/04/15 04:34:34;;;;;;;21.90;10.38;;;;;;;5.89;77.07;101216.72;6104684;19;20051;-76
2023/04/15 04:36:39;;;;;;;21.23;10.52;;;;;;;5.85;77.81;101210.69;6103235;19;20682;-76
2023/04/15 04:38:44;;;;;;;24.70;10.93;;;;;;;5.86;77.72;101224.59;6104037;19;20076;-76
2023/04/15 04:40:49;;;;;;;21.88;10.93;;;;;;;5.89;77.73;101220.16;6103446;19;20003;-76
2023/04/15 04:42:54;;;;;;;19.67;10.13;;;;;;;5.87;77.86;101221.06;6100561;19;20466;-76
2023/04/15 04:44:59;;;;;;;19.95;10.48;;;;;;;5.89;77.90;101233.22;6100768;19;20577;-76
2023/04/15 04:47:06;;;;;;;23.38;11.20;;;;;;;5.85;78.04;101228.94;6102490;19;20498;-75
2023/04/15 04:49:11;;;;;;;21.88;10.80;;;;;;;5.88;78.42;101238.47;6099737;19;20039;-75
2023/04/15 04:51:18;;;;;;;19.85;10.80;;;;;;;5.91;78.32;101246.25;6103991;19;20010;-76
2023/04/15 04:53:23;;;;;;;21.98;11.07;;;;;;;5.93;78.09;101247.97;6101295;19;20015;-75
2023/04/15 04:55:28;;;;;;;24.08;11.80;;;;;;;5.93;78.26;101244.47;6103772;19;20069;-73
2023/04/15 04:57:34;;;;;;;24.65;11.82;;;;;;;5.99;78.16;101254.00;6106808;19;20019;-75
2023/04/15 04:59:39;;;;;;;26.02;11.30;;;;;;;5.98;77.94;101249.63;6103098;19;20034;-75
2023/04/15 05:01:45;;;;;;;24.20;11.98;;;;;;;5.96;78.37;101254.91;6101818;19;20011;-75
2023/04/15 05:03:56;;;;;;;23.02;12.10;;;;;;;5.94;78.30;101257.50;6105366;19;20027;-77
2023/04/15 05:06:02;;;;;;;26.60;12.43;;;;;;;5.91;78.61;101261.91;6105062;19;20503;-75
2023/04/15 05:08:07;;;;;;;22.65;10.57;;;;;;;5.93;78.63;101267.97;6102558;19;20015;-75
2023/04/15 05:10:14;;;;;;;24.55;10.27;;;;;;;5.92;78.80;101277.53;6104230;19;20514;-77
2023/04/15 05:12:22;;;;;;;20.73;11.10;;;;;;;5.95;78.58;101274.06;6101410;19;20007;-75
2023/04/15 05:14:27;;;;;;;25.77;11.40;;;;;;;5.93;78.71;101281.88;6100392;19;20021;-75
2023/04/15 05:16:32;;;;;;;21.58;10.10;;;;;;;5.91;78.56;101278.41;6101437;19;20010;-75
2023/04/15 05:18:37;;;;;;;21.42;9.82;;;;;;;5.89;78.49;101279.31;6104212;19;20023;-75
2023/04/15 05:20:45;;;;;;;19.10;10.88;;;;;;;5.90;78.97;101296.69;6103864;19;20018;-74
2023/04/15 05:22:52;;;;;;;18.85;10.27;;;;;;;5.92;79.13;101292.31;6103789;19;20110;-75
2023/04/15 05:24:57;;;;;;;23.08;12.15;;;;;;;5.96;79.60;101299.25;6102611;19;20102;-75
2023/04/15 05:27:02;;;;;;;24.77;12.60;;;;;;;5.97;79.06;101308.78;6100247;19;20017;-74
2023/04/15 05:29:07;;;;;;;23.05;11.57;;;;;;;6.01;79.16;101305.25;6103041;19;20094;-76
2023/04/15 05:31:12;;;;;;;19.95;10.45;;;;;;;6.08;79.31;101317.34;6099892;19;20366;-76
2023/04/15 05:33:18;;;;;;;26.48;12.00;;;;;;;6.17;78.64;101312.88;6103654;19;20030;-76
2023/04/15 05:35:23;;;;;;;23.27;12.05;;;;;;;6.28;78.45;101324.88;6101537;19;20576;-76
2023/04/15 05:37:30;;;;;;;27.38;11.88;;;;;;;6.38;78.51;101336.03;6103244;19;20002;-77
2023/04/15 05:39:39;;;;;;;23.05;11.98;;;;;;;6.45;78.17;101332.47;6099635;19;20010;-75
2023/04/15 05:41:44;;;;;;;23.88;11.70;;;;;;;6.60;77.75;101333.94;6095174;19;20027;-77
2023/04/15 05:43:50;;;;;;;22.40;11.68;;;;;;;6.76;77.07;101337.16;6104272;19;20010;-75
2023/04/15 05:45:55;;;;;;;25.15;12.55;;;;;;;6.89;77.16;101351.75;6100760;19;20003;-75
2023/04/15 05:48:00;;;;;;;23.33;12.43;;;;;;;6.99;76.50;101345.47;6103355;19;20011;-75
2023/04/15 05:50:07;;;;;;;24.55;11.25;;;;;;;7.09;76.53;101346.19;6103586;19;20003;-74
2023/04/15 05:52:12;;;;;;;23.70;10.85;;;;;;;7.20;75.97;101356.44;6099320;19;20128;-75
2023/04/15 05:54:26;;;;;;;22.80;11.25;;;;;;;7.36;75.45;101357.88;6103923;19;20014;-74
2023/04/15 05:56:31;;;;;;;24.98;12.00;;;;;;;7.47;75.31;101362.88;6106685;19;20003;-75
2023/04/15 05:58:36;;;;;;;24.90;12.20;;;;;;;7.62;74.89;101369.59;6106946;19;20340;-75
2023/04/15 06:00:41;;;;;;;23.52;12.13;;;;;;;7.69;74.40;101376.44;6106806;19;20006;-75
2023/04/15 06:02:48;;;;;;;25.33;12.55;;;;;;;7.78;74.40;101378.84;6105621;19;20478;-74
2023/04/15 06:04:54;;;;;;;25.35;11.38;;;;;;;7.95;73.64;101385.47;6107516;19;20003;-77
2023/04/15 06:06:59;;;;;;;28.90;12.93;;;;;;;8.06;73.16;101380.91;6105971;19;20301;-74
2023/04/15 06:09:04;;;;;;;19.95;11.18;;;;;;;7.99;73.59;101392.38;6101251;19;20518;-76
2023/04/15 06:11:11;;;;;;;23.60;11.18;;;;;;;8.13;73.35;101387.72;6107925;19;19999;-76
2023/04/15 06:13:19;;;;;;;26.65;12.57;;;;;;;8.26;72.75;101398.78;6108628;19;20098;-76
2023/04/15 06:15:24;;;;;;;23.52;11.73;;;;;;;8.32;72.96;101399.53;6107738;19;20495;-75
2023/04/15 06:17:29;;;;;;;27.17;12.32;;;;;;;8.50;72.41;101410.50;6106314;19;20045;-75
2023/04/15 06:19:35;;;;;;;24.52;11.57;;;;;;;8.62;71.71;101414.59;6107631;19;20034;-74
2023/04/15 06:21:40;;;;;;;24.63;11.50;;;;;;;8.61;71.89;101421.63;6106601;19;20136;-75
2023/04/15 06:23:49;;;;;;;24.63;11.23;;;;;;;8.79;71.18;101417.69;6107636;19;20011;-70
2023/04/15 06:25:54;;;;;;;19.25;10.07;;;;;;;8.78;70.98;101429.06;6107205;19;20458;-70
2023/04/15 06:28:02;;;;;;;24.35;12.15;;;;;;;8.93;70.99;101426.09;6105693;19;20077;-69
2023/04/15 06:30:11;;;;;;;28.80;11.68;;;;;;;9.16;70.24;101433.41;6105997;19;20404;-69
2023/04/15 06:32:20;;;;;;;27.02;11.13;;;;;;;9.13;70.23;101440.44;6105883;19;20007;-69
2023/04/15 06:34:25;;;;;;;31.60;12.05;;;;;;;9.11;70.63;101439.63;6106306;19;20546;-70
2023/04/15 06:36:31;;;;;;;21.95;11.43;;;;;;;9.31;70.18;101444.38;6105380;19;20217;-69
2023/04/15 06:38:38;;;;;;;29.30;12.57;;;;;;;9.41;69.32;101449.34;6106440;19;20486;-75
2023/04/15 06:40:43;;;;;;;20.98;10.45;;;;;;;9.40;69.34;101447.63;6104219;19;20012;-75
2023/04/15 06:42:48;;;;;;;23.75;12.25;;;;;;;9.49;69.32;101456.16;6111577;19;20013;-75
2023/04/15 06:44:56;;;;;;;23.27;12.00;;;;;;;9.59;68.77;101452.41;6106070;19;20454;-75
2023/04/15 06:47:01;;;;;;;22.60;11.05;;;;;;;9.61;69.05;101455.81;6104704;19;20018;-75
2023/04/15 06:49:07;;;;;;;21.30;10.60;;;;;;;9.92;67.75;101462.88;6108022;19;20010;-75
2023/04/15 06:51:11;;;;;;;24.63;11.80;;;;;;;10.00;67.71;101460.91;6105153;19;20003;-75
2023/04/15 06:53:19;;;;;;;20.90;11.60;;;;;;;10.02;68.01;101465.19;6104595;19;20431;-75
2023/04/15 06:55:24;;;;;;;25.48;11.35;;;;;;;10.24;67.62;101457.59;6105113;19;20010;-75
2023/04/15 06:57:30;;;;;;;24.65;12.30;;;;;;;10.29;67.19;101460.97;6107811;19;20018;-75
2023/04/15 06:59:38;;;;;;;22.17;11.13;;;;;;;10.44;66.68;101466.66;6106536;19;20002;-75
2023/04/15 07:01:46;;;;;;;23.65;10.88;;;;;;;10.64;66.40;101471.34;6107302;19;20234;-69
2023/04/15 07:03:53;;;;;;;23.77;11.43;;;;;;;10.94;65.88;101470.34;6105206;19;20042;-70
2023/04/15 07:05:58;;;;;;;26.73;11.52;;;;;;;10.87;65.61;101478.47;6102928;19;20010;-69
2023/04/15 07:08:03;;;;;;;24.50;11.13;;;;;;;10.89;65.53;101476.66;6107607;19;20011;-77
2023/04/15 07:10:10;;;;;;;21.08;10.95;;;;;;;10.86;65.07;101479.41;6110790;19;20515;-74
2023/04/15 07:12:15;;;;;;;21.50;11.13;;;;;;;11.10;64.70;101483.88;6109999;19;20296;-74
2023/04/15 07:17:20;;;;;;;19.33;10.68;;;;;;;11.19;63.75;101486.22;6068086;19;20020;-68
2023/04/15 07:19:26;;;;;;;24.48;11.48;;;;;;;11.42;63.73;101492.47;6101087;19;20078;-69
2023/04/15 07:21:31;;;;;;;20.85;11.23;;;;;;;11.24;63.80;101488.69;6104765;19;20138;-68
2023/04/15 07:23:36;;;;;;;25.50;11.38;;;;;;;11.37;63.78;101499.66;6101829;19;20003;-70
2023/04/15 07:25:41;;;;;;;22.70;11.13;;;;;;;11.36;63.12;101503.22;6104181;19;20010;-69
2023/04/15 07:27:47;;;;;;;23.60;11.20;;;;;;;11.41;63.49;101503.91;6102575;19;20011;-69
2023/04/15 07:29:52;;;;;;;21.27;10.48;;;;;;;11.91;62.16;101505.75;6101784;19;20020;-69
2023/04/15 07:31:57;;;;;;;23.48;11.68;;;;;;;11.64;62.61;101518.94;6100898;19;20007;-69
2023/04/15 07:34:05;;;;;;;21.65;10.45;;;;;;;11.76;62.38;101517.66;6102469;19;20003;-71
2023/04/15 07:36:11;;;;;;;19.77;10.43;;;;;;;11.94;62.03;101522.31;6100666;19;20028;-69
2023/04/15 07:38:16;;;;;;;17.95;10.45;;;;;;;11.93;61.71;101522.34;6102661;19;20043;-69
2023/04/15 07:40:24;;;;;;;20.23;10.90;;;;;;;12.04;61.87;101525.50;6103951;19;20011;-69
2023/04/15 07:42:30;;;;;;;20.33;11.13;;;;;;;12.41;61.53;101532.06;6102239;19;20458;-69
2023/04/15 07:44:35;;;;;;;20.23;10.05;;;;;;;12.23;61.07;101526.53;6104764;19;20507;-76
2023/04/15 07:46:41;;;;;;;19.08;9.35;;;;;;;12.53;60.74;101531.56;6102946;19;20056;-76
2023/04/15 07:48:46;;;;;;;20.05;10.18;;;;;;;12.72;60.16;101532.63;6102087;19;20450;-76
2023/04/15 07:50:54;;;;;;;19.27;9.98;;;;;;;12.91;59.87;101532.75;6102155;19;20018;-76
2023/04/15 07:52:59;;;;;;;19.55;10.38;;;;;;;12.94;59.84;101543.19;6100079;19;20170;-75
2023/04/15 07:55:05;;;;;;;23.10;10.90;;;;;;;12.88;59.96;101550.50;6105662;19;20017;-75
2023/04/15 07:57:13;;;;;;;21.77;10.35;;;;;;;13.08;59.87;101545.28;6104740;19;20013;-75
2023/04/15 07:59:22;;;;;;;18.92;9.60;;;;;;;12.97;59.31;101547.47;6102537;19;23103;-76
2023/04/15 08:01:28;;;;;;;19.02;10.20;;;;;;;13.02;59.30;101564.00;6099816;19;20570;-75
2023/04/15 08:03:33;;;;;;;18.00;10.38;;;;;;;13.10;59.00;101558.41;6101357;19;20167;-76
2023/04/15 08:05:39;;;;;;;23.40;11.25;;;;;;;13.13;59.79;101564.44;6098489;19;20006;-75
2023/04/15 08:07:49;;;;;;;18.60;10.88;;;;;;;13.35;59.45;101568.91;6102755;19;20002;-75
2023/04/15 08:09:55;;;;;;;21.33;11.98;;;;;;;13.31;59.04;101577.84;6101717;19;20002;-75
2023/04/15 08:12:00;;;;;;;21.55;10.43;;;;;;;13.23;59.27;101582.56;6095889;19;20013;-75
2023/04/15 08:14:05;;;;;;;22.42;9.75;;;;;;;13.54;58.95;101584.84;6098207;19;20010;-69
2023/04/15 08:16:23;;;;;;;22.13;10.10;;;;;;;13.46;58.34;101587.81;6098561;19;20018;-70
2023/04/15 08:18:28;;;;;;;19.95;9.48;;;;;;;13.48;58.94;101595.63;6096761;19;20003;-70
2023/04/15 08:20:33;;;;;;;24.27;10.80;;;;;;;13.85;58.44;101589.72;6101683;19;20493;-70
2023/04/15 08:22:38;;;;;;;19.15;9.90;;;;;;;13.78;58.12;101594.38;6098249;19;20089;-70
2023/04/15 08:24:46;;;;;;;17.77;9.43;;;;;;;14.03;57.49;101594.22;6098420;19;20498;-70
2023/04/15 08:26:51;;;;;;;20.73;10.65;;;;;;;13.93;57.44;101598.19;6097441;19;20579;-69
2023/04/15 08:28:57;;;;;;;18.90;9.85;;;;;;;13.63;56.91;101604.72;6098174;19;20013;-70
2023/04/15 08:31:02;;;;;;;21.38;9.52;;;;;;;13.71;56.84;101615.84;6097106;19;20010;-71
2023/04/15 08:33:08;;;;;;;17.95;8.98;;;;;;;13.77;56.50;101613.81;6097567;19;20007;-71
2023/04/15 08:35:13;;;;;;;18.27;10.27;;;;;;;13.79;56.42;101611.94;6104623;19;20011;-71
2023/04/15 08:37:18;;;;;;;21.15;10.40;;;;;;;13.73;57.25;101614.84;6103630;19;20048;-71
2023/04/15 08:39:23;;;;;;;21.45;9.55;;;;;;;13.90;57.35;101623.84;6104261;19;20016;-72
2023/04/15 08:41:33;;;;;;;19.35;10.75;;;;;;;14.22;56.75;101619.88;6101455;19;20010;-70
2023/04/15 08:43:44;;;;;;;21.13;10.50;;;;;;;14.28;56.18;101624.88;6101124;19;20557;-71
2023/04/15 08:45:50;;;;;;;22.00;10.02;;;;;;;14.32;55.86;101630.88;6101155;19;20038;-70
2023/04/15 08:47:58;;;;;;;19.10;9.60;;;;;;;13.70;55.95;101635.25;6101357;19;20034;-71
2023/04/15 08:50:05;;;;;;;21.60;10.35;;;;;;;13.96;55.81;101635.03;6103725;19;20013;-71
2023/04/15 08:52:12;;;;;;;17.30;9.82;;;;;;;13.90;56.25;101648.53;6103606;19;20011;-70
2023/04/15 08:54:19;;;;;;;23.13;10.38;;;;;;;14.04;56.17;101642.66;6099390;19;20006;-69
2023/04/15 08:56:29;;;;;;;18.95;9.63;;;;;;;14.18;54.68;101655.28;6103403;19;20022;-70
2023/04/15 08:58:37;;;;;;;24.42;11.85;;;;;;;14.42;54.79;101651.56;6103093;19;20023;-70
2023/04/15 09:00:44;;;;;;;20.50;9.30;;;;;;;14.39;54.07;101659.63;6101156;19;20089;-70
2023/04/15 09:02:52;;;;;;;20.00;10.65;;;;;;;14.49;53.20;101665.38;6101354;19;20471;-71
2023/04/15 09:04:57;;;;;;;24.20;11.32;;;;;;;14.27;53.54;101658.38;6103946;19;20007;-70
2023/04/15 09:07:03;;;;;;;21.27;9.07;;;;;;;14.05;53.47;101663.72;6098882;19;20010;-70
2023/04/15 09:09:09;;;;;;;19.75;9.43;;;;;;;14.11;53.81;101669.66;6101361;19;20015;-75
2023/04/15 09:11:14;;;;;;;19.27;9.32;;;;;;;14.48;53.00;101668.94;6101891;19;20027;-75
2023/04/15 09:13:22;;;;;;;19.08;9.38;;;;;;;14.32;52.84;101673.19;6102684;19;20094;-76
2023/04/15 09:15:35;;;;;;;18.45;8.70;;;;;;;14.54;52.73;101663.44;6098424;19;20482;-77
2023/04/15 09:17:45;;;;;;;19.30;8.32;;;;;;;15.06;51.84;101669.03;6100103;19;20015;-79
2023/04/15 09:20:10;;;;;;;19.60;8.95;;;;;;;14.85;50.94;101673.53;6100133;19;20130;-78
2023/04/15 09:22:20;;;;;;;20.80;9.63;;;;;;;14.97;50.71;101676.53;6101197;19;20506;-77
2023/04/15 09:24:25;;;;;;;20.92;8.63;;;;;;;15.20;50.29;101678.97;6103467;19;20006;-76
2023/04/15 09:26:39;;;;;;;16.40;7.85;;;;;;;15.15;49.24;101683.63;6103016;19;20007;-75
2023/04/15 09:28:44;;;;;;;19.38;7.93;;;;;;;15.57;49.37;101682.53;6102200;19;20015;-76
2023/04/15 09:30:53;;;;;;;20.95;8.40;;;;;;;15.68;48.66;101701.44;6101158;19;20007;-76
2023/04/15 09:33:09;;;;;;;16.40;7.25;;;;;;;15.65;48.75;101696.28;6100560;19;20010;-75
2023/04/15 09:35:15;;;;;;;17.77;7.15;;;;;;;15.48;49.09;101696.22;6101288;19;20043;-76
2023/04/15 09:37:37;;;;;;;19.83;6.82;;;;;;;15.12;46.58;101710.25;6101168;19;20142;-75
2023/04/15 09:39:50;;;;;;;16.02;6.47;;;;;;;14.97;45.83;101713.59;6101873;19;20475;-75
2023/04/15 09:42:08;;;;;;;15.82;5.70;;;;;;;14.91;46.15;101705.00;6103615;19;20050;-75
2023/04/15 09:44:24;;;;;;;15.63;5.55;;;;;;;14.99;45.06;101722.31;6099735;19;20007;-77
2023/04/15 09:46:46;;;;;;;11.88;5.70;;;;;;;14.98;45.81;101720.59;6096744;19;20006;-78